createdAt,value
2019-04-30T00:00:46.630Z,10.50
2019-04-30T00:03:39.538Z,10.50
2019-04-30T00:06:12.582Z,10.60
2019-04-30T00:08:45.383Z,10.60
2019-04-30T00:11:19.535Z,10.50
2019-04-30T00:13:57.318Z,10.50
2019-04-30T00:16:30.947Z,10.50
2019-04-30T00:19:02.009Z,10.50
2019-04-30T00:21:36.139Z,10.50
2019-04-30T00:24:10.235Z,10.60
2019-04-30T00:26:45.387Z,10.60
2019-04-30T00:29:26.552Z,10.60
2019-04-30T00:31:57.720Z,10.60
2019-04-30T00:34:30.835Z,10.60
2019-04-30T00:37:02.200Z,10.70
2019-04-30T00:39:35.588Z,10.60
2019-04-30T00:42:08.607Z,10.50
2019-04-30T00:44:41.442Z,10.50
2019-04-30T00:47:15.453Z,10.50
2019-04-30T00:49:52.294Z,10.40
2019-04-30T00:52:25.184Z,10.40
2019-04-30T00:55:00.432Z,10.30
2019-04-30T00:57:37.271Z,10.30
2019-04-30T01:00:11.832Z,10.40
2019-04-30T01:02:51.988Z,10.40
2019-04-30T01:05:26.837Z,10.40
2019-04-30T01:07:59.512Z,10.50
2019-04-30T01:10:32.335Z,10.60
2019-04-30T01:13:08.275Z,10.50
2019-04-30T01:15:44.067Z,10.40
2019-04-30T01:18:14.736Z,10.40
2019-04-30T01:20:48.771Z,10.40
2019-04-30T01:23:21.823Z,10.40
2019-04-30T01:25:54.848Z,10.50
2019-04-30T01:28:28.442Z,10.40
2019-04-30T01:31:01.985Z,10.40
2019-04-30T01:33:35.750Z,10.30
2019-04-30T01:36:13.221Z,10.20
2019-04-30T01:38:44.798Z,10.20
2019-04-30T01:41:21.433Z,10.20
2019-04-30T01:43:53.164Z,10.10
2019-04-30T01:46:26.097Z,10.10
2019-04-30T01:48:58.922Z,10.00
2019-04-30T01:51:31.751Z,9.90
2019-04-30T01:54:04.582Z,9.80
2019-04-30T01:56:49.818Z,10.00
2019-04-30T01:59:30.864Z,10.10
2019-04-30T02:02:04.086Z,10.10
2019-04-30T02:04:36.901Z,10.10
2019-04-30T02:07:09.767Z,10.20
2019-04-30T02:09:42.574Z,10.10
2019-04-30T02:12:15.456Z,10.00
2019-04-30T02:14:49.461Z,9.90
2019-04-30T02:17:23.029Z,9.90
2019-04-30T02:19:56.904Z,9.80
2019-04-30T02:22:31.211Z,9.80
2019-04-30T02:25:05.187Z,9.80
2019-04-30T02:27:39.040Z,9.80
2019-04-30T02:30:13.244Z,9.80
2019-04-30T02:32:46.101Z,9.80
2019-04-30T02:35:49.969Z,9.90
2019-04-30T02:38:30.024Z,9.90
2019-04-30T02:41:05.636Z,9.90
2019-04-30T02:43:40.663Z,9.90
2019-04-30T02:46:15.072Z,9.90
2019-04-30T02:48:52.372Z,9.90
2019-04-30T02:51:30.121Z,9.90
2019-04-30T02:54:26.443Z,9.90
2019-04-30T02:57:12.824Z,9.90
2019-04-30T03:00:05.231Z,9.80
2019-04-30T03:02:39.642Z,9.60
2019-04-30T03:05:13.529Z,9.70
2019-04-30T03:07:46.722Z,9.70
2019-04-30T03:10:19.991Z,9.60
2019-04-30T03:12:52.959Z,9.50
2019-04-30T03:15:25.765Z,9.50
2019-04-30T03:18:14.843Z,9.40
2019-04-30T03:20:59.654Z,9.40
2019-04-30T03:23:31.959Z,9.40
2019-04-30T03:26:04.786Z,9.50
2019-04-30T03:28:39.672Z,9.60
2019-04-30T03:31:12.822Z,9.70
2019-04-30T03:33:45.700Z,9.60
2019-04-30T03:36:21.617Z,9.60
2019-04-30T03:38:53.299Z,9.40
2019-04-30T03:41:33.063Z,9.40
2019-04-30T03:44:17.436Z,9.50
2019-04-30T03:46:39.802Z,9.50
2019-04-30T03:49:13.438Z,9.30
2019-04-30T03:51:46.222Z,9.30
2019-04-30T03:54:19.563Z,9.20
2019-04-30T03:56:54.513Z,9.10
2019-04-30T03:59:29.828Z,9.20
2019-04-30T04:02:12.927Z,9.20
2019-04-30T04:04:52.951Z,9.20
2019-04-30T04:07:39.591Z,9.10
2019-04-30T04:10:20.357Z,9.10
2019-04-30T04:12:53.205Z,9.10
2019-04-30T04:15:26.026Z,9.10
2019-04-30T04:18:00.398Z,9.20
2019-04-30T04:20:33.393Z,9.20
2019-04-30T04:23:06.212Z,9.30
2019-04-30T04:25:39.967Z,9.30
2019-04-30T04:28:12.945Z,9.30
2019-04-30T04:30:45.788Z,9.40
2019-04-30T04:33:19.954Z,9.50
2019-04-30T04:35:52.974Z,9.50
2019-04-30T04:38:25.933Z,9.60
2019-04-30T04:40:59.931Z,9.60
2019-04-30T04:43:33.469Z,9.70
2019-04-30T04:46:06.274Z,9.70
2019-04-30T04:48:39.557Z,9.80
2019-04-30T04:51:27.754Z,9.80
2019-04-30T04:53:50.036Z,9.80
2019-04-30T04:56:23.067Z,9.80
2019-04-30T04:58:55.949Z,9.90
2019-04-30T05:01:28.993Z,9.90
2019-04-30T05:04:01.878Z,9.90
2019-04-30T05:06:34.756Z,10.00
2019-04-30T05:09:09.657Z,10.10
2019-04-30T05:11:42.315Z,10.20
2019-04-30T05:14:15.158Z,10.30
2019-04-30T05:16:48.786Z,10.40
2019-04-30T05:19:21.852Z,10.50
2019-04-30T05:21:54.731Z,10.60
2019-04-30T05:24:28.679Z,10.80
2019-04-30T05:27:01.605Z,10.90
2019-04-30T05:29:34.663Z,11.00
2019-04-30T05:32:09.470Z,11.20
2019-04-30T05:34:42.391Z,11.30
2019-04-30T05:37:15.180Z,11.40
2019-04-30T05:39:48.899Z,11.80
2019-04-30T05:42:21.911Z,12.00
2019-04-30T05:44:54.751Z,12.20
2019-04-30T05:47:29.049Z,12.50
2019-04-30T05:50:02.350Z,12.70
2019-04-30T05:52:36.274Z,13.00
2019-04-30T05:55:10.329Z,13.80
2019-04-30T05:57:53.013Z,15.30
2019-04-30T06:00:19.096Z,16.60
2019-04-30T06:02:53.222Z,17.50
2019-04-30T06:05:26.151Z,18.00
2019-04-30T06:07:59.368Z,18.10
2019-04-30T06:11:07.095Z,17.90
2019-04-30T06:14:05.169Z,17.40
2019-04-30T06:16:39.318Z,16.90
2019-04-30T06:19:12.410Z,16.70
2019-04-30T06:21:45.288Z,16.50
2019-04-30T06:24:18.771Z,16.30
2019-04-30T06:26:51.679Z,15.30
2019-04-30T06:29:24.758Z,15.30
2019-04-30T06:31:58.745Z,15.20
2019-04-30T06:34:32.665Z,15.30
2019-04-30T06:37:05.618Z,16.00
2019-04-30T06:39:38.753Z,16.40
2019-04-30T06:42:12.981Z,16.80
2019-04-30T06:44:46.308Z,16.80
2019-04-30T06:47:32.131Z,16.50
2019-04-30T06:49:54.797Z,16.50
2019-04-30T06:52:29.337Z,16.40
2019-04-30T06:55:02.194Z,16.50
2019-04-30T06:57:35.017Z,16.60
2019-04-30T07:00:09.897Z,17.30
2019-04-30T07:02:42.811Z,16.80
2019-04-30T07:05:15.604Z,16.80
2019-04-30T07:08:11.399Z,16.40
2019-04-30T07:10:53.040Z,16.20
2019-04-30T07:13:20.091Z,16.60
2019-04-30T07:15:52.918Z,17.10
2019-04-30T07:18:28.866Z,17.10
2019-04-30T07:21:01.798Z,17.20
2019-04-30T07:23:34.635Z,17.90
2019-04-30T07:26:08.995Z,17.80
2019-04-30T07:28:47.889Z,17.60
2019-04-30T07:31:18.996Z,16.60
2019-04-30T07:33:53.878Z,17.00
2019-04-30T07:36:43.328Z,17.20
2019-04-30T07:39:04.587Z,17.50
2019-04-30T07:41:37.433Z,17.80
2019-04-30T07:44:12.940Z,17.90
2019-04-30T07:46:45.443Z,17.10
2019-04-30T07:49:20.604Z,17.60
2019-04-30T07:51:53.869Z,18.40
2019-04-30T07:54:30.066Z,18.40
2019-04-30T07:57:03.112Z,19.30
2019-04-30T07:59:36.021Z,19.60
2019-04-30T08:02:14.354Z,18.80
2019-04-30T08:04:55.256Z,18.80
2019-04-30T08:07:29.786Z,17.90
2019-04-30T08:10:04.335Z,16.40
2019-04-30T08:12:41.584Z,16.60
2019-04-30T08:15:12.054Z,16.50
2019-04-30T08:18:00.288Z,16.40
2019-04-30T08:20:21.474Z,16.60
2019-04-30T08:22:54.330Z,16.10
2019-04-30T08:25:29.047Z,16.60
2019-04-30T08:28:03.111Z,16.30
2019-04-30T08:30:35.920Z,16.60
2019-04-30T08:33:09.401Z,16.50
2019-04-30T08:35:42.409Z,16.30
2019-04-30T08:38:15.242Z,16.60
2019-04-30T08:40:55.976Z,17.20
2019-04-30T08:43:22.900Z,16.40
2019-04-30T08:45:55.733Z,16.40
2019-04-30T08:48:43.795Z,15.90
2019-04-30T08:51:03.348Z,16.00
2019-04-30T08:53:36.398Z,16.40
2019-04-30T08:56:10.130Z,16.00
2019-04-30T08:58:43.057Z,16.40
2019-04-30T09:01:16.787Z,16.20
2019-04-30T09:03:51.423Z,16.30
2019-04-30T09:06:29.138Z,16.70
2019-04-30T09:09:14.174Z,16.70
2019-04-30T09:11:53.111Z,17.00
2019-04-30T09:14:21.857Z,16.90
2019-04-30T09:16:54.825Z,16.80
2019-04-30T09:19:29.574Z,16.70
2019-04-30T09:22:02.406Z,16.30
2019-04-30T09:24:35.404Z,16.20
2019-04-30T09:27:10.613Z,15.90
2019-04-30T09:29:44.584Z,15.80
2019-04-30T09:32:19.340Z,16.00
2019-04-30T09:34:52.400Z,16.10
2019-04-30T09:37:25.243Z,16.10
2019-04-30T09:39:59.252Z,15.90
2019-04-30T09:42:32.245Z,16.00
2019-04-30T09:45:05.772Z,16.00
2019-04-30T09:47:41.889Z,15.80
2019-04-30T09:50:14.566Z,15.60
2019-04-30T09:52:49.521Z,15.60
2019-04-30T09:55:22.203Z,15.60
2019-04-30T09:57:55.082Z,15.50
2019-04-30T10:00:29.473Z,15.50
2019-04-30T10:03:03.000Z,15.60
2019-04-30T10:05:36.101Z,15.80
2019-04-30T10:08:09.067Z,15.60
2019-04-30T10:10:48.883Z,15.60
2019-04-30T10:13:21.692Z,15.40
2019-04-30T10:16:05.615Z,15.70
2019-04-30T10:18:38.443Z,15.80
2019-04-30T10:21:11.363Z,15.60
2019-04-30T10:23:44.201Z,15.70
2019-04-30T10:26:18.949Z,15.50
2019-04-30T10:28:52.778Z,15.70
2019-04-30T10:31:25.782Z,16.00
2019-04-30T10:33:58.711Z,16.00
2019-04-30T10:36:31.696Z,15.80
2019-04-30T10:39:08.676Z,15.90
2019-04-30T10:41:41.506Z,16.10
2019-04-30T10:44:14.321Z,15.90
2019-04-30T10:46:47.166Z,15.80
2019-04-30T10:49:20.106Z,15.90
2019-04-30T10:51:53.141Z,15.90
2019-04-30T10:54:26.562Z,16.20
2019-04-30T10:57:00.841Z,16.30
2019-04-30T10:59:33.676Z,16.50
2019-04-30T11:02:08.954Z,16.40
2019-04-30T11:04:41.782Z,16.30
2019-04-30T11:07:14.953Z,16.60
2019-04-30T11:09:49.374Z,16.60
2019-04-30T11:12:22.459Z,16.50
2019-04-30T11:14:55.323Z,16.50
2019-04-30T11:17:30.083Z,16.30
2019-04-30T11:20:04.095Z,16.30
2019-04-30T11:22:37.273Z,16.50
2019-04-30T11:25:11.112Z,16.40
2019-04-30T11:27:44.347Z,16.40
2019-04-30T11:30:23.630Z,16.50
2019-04-30T11:32:53.058Z,16.70
2019-04-30T11:35:26.202Z,16.80
2019-04-30T11:37:59.055Z,16.80
2019-04-30T11:40:37.145Z,16.70
2019-04-30T11:43:07.536Z,16.90
2019-04-30T11:46:33.912Z,16.90
2019-04-30T11:49:06.761Z,16.90
2019-04-30T11:51:39.585Z,17.00
2019-04-30T11:54:12.508Z,17.00
2019-04-30T11:56:45.387Z,17.00
2019-04-30T11:59:19.569Z,17.10
2019-04-30T12:01:54.648Z,17.10
2019-04-30T12:04:29.701Z,17.40
2019-04-30T12:07:11.083Z,17.50
2019-04-30T12:09:52.618Z,17.50
2019-04-30T12:12:25.666Z,17.50
2019-04-30T12:15:01.081Z,17.50
2019-04-30T12:17:33.255Z,17.40
2019-04-30T12:20:08.603Z,17.40
2019-04-30T12:22:41.580Z,17.40
2019-04-30T12:25:14.532Z,17.40
2019-04-30T12:27:48.821Z,17.50
2019-04-30T12:30:22.509Z,17.70
2019-04-30T12:32:55.330Z,17.80
2019-04-30T12:35:28.155Z,17.60
2019-04-30T12:38:01.050Z,17.50
2019-04-30T12:40:33.937Z,17.70
2019-04-30T12:43:06.794Z,17.80
2019-04-30T12:45:39.609Z,17.70
2019-04-30T12:48:18.544Z,17.60
2019-04-30T12:51:12.525Z,17.70
2019-04-30T12:53:52.057Z,17.90
2019-04-30T12:56:33.749Z,17.90
2019-04-30T12:59:06.591Z,17.90
2019-04-30T13:01:39.983Z,17.90
2019-04-30T13:04:12.999Z,17.90
2019-04-30T13:06:48.295Z,18.10
2019-04-30T13:09:21.599Z,18.20
2019-04-30T13:11:55.384Z,18.10
2019-04-30T13:14:30.174Z,17.90
2019-04-30T13:17:03.213Z,18.00
2019-04-30T13:19:36.019Z,18.00
2019-04-30T13:22:09.337Z,18.10
2019-04-30T13:24:43.727Z,18.20
2019-04-30T13:27:16.554Z,18.20
2019-04-30T13:30:11.878Z,18.40
2019-04-30T13:32:51.736Z,18.30
2019-04-30T13:35:24.583Z,18.30
2019-04-30T13:38:03.739Z,18.30
2019-04-30T13:40:55.788Z,18.30
2019-04-30T13:43:48.751Z,18.30
2019-04-30T13:46:23.610Z,18.30
2019-04-30T13:48:56.540Z,18.30
2019-04-30T13:51:29.474Z,18.50
2019-04-30T13:54:02.333Z,18.60
2019-04-30T13:56:35.195Z,18.70
2019-04-30T13:59:08.050Z,18.60
2019-04-30T14:01:40.891Z,18.50
2019-04-30T14:04:30.030Z,18.40
2019-04-30T14:07:10.515Z,18.40
2019-04-30T14:09:44.505Z,18.40
2019-04-30T14:12:17.356Z,18.60
2019-04-30T14:14:50.189Z,18.50
2019-04-30T14:17:23.097Z,18.60
2019-04-30T14:19:55.970Z,18.70
2019-04-30T14:22:28.788Z,18.70
2019-04-30T14:25:01.671Z,18.60
2019-04-30T14:27:34.673Z,18.60
2019-04-30T14:30:09.292Z,18.60
2019-04-30T14:32:42.285Z,18.80
2019-04-30T14:35:15.205Z,18.70
2019-04-30T14:37:49.643Z,18.70
2019-04-30T14:40:23.503Z,18.60
2019-04-30T14:43:22.624Z,18.60
2019-04-30T14:46:16.462Z,18.90
2019-04-30T14:48:53.321Z,18.70
2019-04-30T14:51:26.730Z,18.60
2019-04-30T14:54:13.455Z,18.70
2019-04-30T14:56:53.881Z,18.90
2019-04-30T14:59:45.246Z,18.70
2019-04-30T15:02:25.740Z,18.70
2019-04-30T15:04:58.802Z,18.70
2019-04-30T15:07:31.684Z,18.80
2019-04-30T15:10:05.095Z,18.90
2019-04-30T15:12:37.987Z,18.70
2019-04-30T15:15:13.034Z,18.70
2019-04-30T15:17:45.912Z,18.70
2019-04-30T15:20:19.687Z,18.70
2019-04-30T15:23:03.784Z,18.70
2019-04-30T15:25:38.675Z,18.50
2019-04-30T15:28:11.685Z,18.40
2019-04-30T15:30:44.686Z,18.40
2019-04-30T15:33:37.259Z,18.40
2019-04-30T15:36:10.242Z,18.30
2019-04-30T15:39:21.113Z,18.40
2019-04-30T15:41:54.291Z,18.50
2019-04-30T15:44:27.290Z,18.40
2019-04-30T15:47:00.849Z,18.50
2019-04-30T15:49:34.092Z,18.60
2019-04-30T15:52:10.790Z,18.60
2019-04-30T15:54:41.904Z,18.50
2019-04-30T15:57:14.849Z,18.50
2019-04-30T15:59:47.824Z,18.50
2019-04-30T16:02:28.631Z,18.40
2019-04-30T16:05:20.880Z,18.30
2019-04-30T16:08:31.416Z,18.10
2019-04-30T16:11:20.883Z,18.10
2019-04-30T16:14:19.352Z,17.80
2019-04-30T16:17:00.260Z,17.90
2019-04-30T16:19:33.113Z,18.00
2019-04-30T16:22:06.202Z,18.00
2019-04-30T16:24:39.154Z,18.00
2019-04-30T16:27:12.144Z,18.00
2019-04-30T16:29:46.235Z,18.00
2019-04-30T16:32:21.059Z,18.00
2019-04-30T16:34:53.982Z,17.90
2019-04-30T16:37:28.751Z,17.90
2019-04-30T16:40:01.680Z,17.70
2019-04-30T16:42:34.734Z,17.70
2019-04-30T16:45:09.353Z,17.80
2019-04-30T16:47:42.517Z,17.80
2019-04-30T16:50:15.369Z,17.70
2019-04-30T16:52:49.799Z,17.70
2019-04-30T16:55:22.821Z,17.70
2019-04-30T16:57:55.691Z,17.70
2019-04-30T17:00:30.876Z,17.60
2019-04-30T17:03:09.369Z,17.40
2019-04-30T17:05:48.009Z,17.40
2019-04-30T17:08:33.682Z,17.30
2019-04-30T17:11:12.222Z,17.30
2019-04-30T17:13:52.078Z,17.30
2019-04-30T17:16:25.024Z,17.40
2019-04-30T17:18:59.073Z,17.40
2019-04-30T17:21:32.929Z,17.30
2019-04-30T17:24:05.802Z,17.30
2019-04-30T17:26:39.211Z,17.30
2019-04-30T17:29:12.121Z,17.20
2019-04-30T17:31:44.998Z,17.10
2019-04-30T17:34:17.845Z,17.10
2019-04-30T17:36:50.855Z,17.00
2019-04-30T17:39:24.112Z,17.00
2019-04-30T17:41:57.011Z,16.90
2019-04-30T17:44:29.916Z,16.90
2019-04-30T17:47:02.758Z,16.80
2019-04-30T17:49:35.610Z,16.70
2019-04-30T17:52:09.484Z,16.60
2019-04-30T17:54:43.562Z,16.50
2019-04-30T17:57:29.317Z,16.40
2019-04-30T17:59:51.212Z,16.30
2019-04-30T18:02:26.635Z,16.30
2019-04-30T18:04:59.491Z,16.20
2019-04-30T18:07:32.488Z,16.20
2019-04-30T18:10:09.066Z,16.10
2019-04-30T18:12:42.022Z,16.00
2019-04-30T18:15:20.764Z,15.90
2019-04-30T18:18:16.009Z,16.00
2019-04-30T18:20:59.364Z,15.90
2019-04-30T18:23:48.381Z,15.80
2019-04-30T18:26:22.400Z,15.70
2019-04-30T18:28:55.257Z,15.60
2019-04-30T18:31:29.809Z,15.50
2019-04-30T18:34:03.079Z,15.30
2019-04-30T18:36:36.050Z,15.30
2019-04-30T18:39:09.014Z,15.00
2019-04-30T18:41:43.779Z,15.00
2019-04-30T18:44:16.826Z,15.10
2019-04-30T18:46:49.635Z,15.00
2019-04-30T18:49:22.596Z,14.90
2019-04-30T18:51:55.501Z,14.80
2019-04-30T18:54:29.523Z,14.60
2019-04-30T18:57:03.836Z,14.50
2019-04-30T18:59:36.673Z,14.40
2019-04-30T19:02:11.880Z,14.20
2019-04-30T19:04:44.766Z,14.10
2019-04-30T19:07:32.439Z,13.90
2019-04-30T19:10:14.997Z,13.60
2019-04-30T19:13:00.576Z,13.50
2019-04-30T19:16:18.727Z,13.40
2019-04-30T19:18:42.722Z,13.30
2019-04-30T19:21:15.574Z,13.30
2019-04-30T19:23:48.777Z,13.20
2019-04-30T19:26:21.806Z,13.00
2019-04-30T19:28:54.656Z,12.80
2019-04-30T19:31:29.499Z,12.70
2019-04-30T19:34:02.719Z,12.60
2019-04-30T19:36:37.698Z,12.60
2019-04-30T19:39:12.390Z,12.70
2019-04-30T19:41:45.445Z,12.80
2019-04-30T19:44:20.676Z,12.80
2019-04-30T19:46:53.485Z,12.70
2019-04-30T19:49:26.356Z,12.70
2019-04-30T19:52:06.145Z,12.60
2019-04-30T19:54:34.847Z,12.60
2019-04-30T19:57:10.231Z,12.50
2019-04-30T19:59:43.649Z,12.30
2019-04-30T20:02:16.935Z,12.20
2019-04-30T20:04:50.072Z,12.00
2019-04-30T20:07:22.980Z,12.00
2019-04-30T20:10:03.222Z,11.90
2019-04-30T20:12:30.829Z,11.90
2019-04-30T20:15:16.462Z,11.80
2019-04-30T20:17:39.941Z,11.80
2019-04-30T20:20:13.357Z,11.70
2019-04-30T20:22:46.268Z,11.80
2019-04-30T20:25:19.312Z,11.90
2019-04-30T20:27:52.352Z,11.90
2019-04-30T20:30:25.264Z,11.80
2019-04-30T20:32:59.417Z,11.80
2019-04-30T20:35:32.775Z,11.80
2019-04-30T20:38:23.808Z,11.80
2019-04-30T20:41:02.323Z,11.90
2019-04-30T20:43:31.797Z,11.90
2019-04-30T20:46:04.675Z,12.00
2019-04-30T20:48:40.731Z,12.00
2019-04-30T20:51:12.360Z,11.70
2019-04-30T20:53:45.242Z,11.40
2019-04-30T20:56:19.129Z,11.30
2019-04-30T20:58:57.777Z,11.20
2019-04-30T21:01:29.406Z,11.10
2019-04-30T21:04:02.501Z,11.00
2019-04-30T21:06:35.481Z,11.00
2019-04-30T21:09:09.476Z,11.00
2019-04-30T21:11:45.253Z,11.00
2019-04-30T21:14:19.273Z,11.00
2019-04-30T21:16:52.569Z,11.00
2019-04-30T21:19:25.457Z,11.00
2019-04-30T21:21:59.591Z,10.80
2019-04-30T21:24:32.822Z,10.80
2019-04-30T21:27:05.690Z,10.70
2019-04-30T21:29:39.129Z,10.70
2019-04-30T21:32:21.276Z,10.70
2019-04-30T21:35:16.783Z,10.60
2019-04-30T21:37:49.697Z,10.60
2019-04-30T21:40:23.537Z,10.60
2019-04-30T21:42:58.102Z,10.60
2019-04-30T21:45:31.491Z,10.50
2019-04-30T21:48:04.691Z,10.60
2019-04-30T21:50:39.593Z,10.70
2019-04-30T21:53:12.311Z,10.60
2019-04-30T21:55:45.173Z,10.60
2019-04-30T21:58:20.491Z,10.60
2019-04-30T22:01:19.183Z,10.60
2019-04-30T22:03:54.487Z,10.50
2019-04-30T22:06:29.434Z,10.40
2019-04-30T22:09:03.081Z,10.40
2019-04-30T22:11:39.464Z,10.30
2019-04-30T22:14:12.662Z,10.20
2019-04-30T22:16:45.525Z,10.20
2019-04-30T22:19:18.361Z,10.20
2019-04-30T22:21:52.297Z,10.20
2019-04-30T22:24:25.143Z,10.20
2019-04-30T22:26:57.991Z,10.20
2019-04-30T22:29:39.100Z,10.20
2019-04-30T22:32:05.573Z,10.20
2019-04-30T22:34:38.428Z,10.20
2019-04-30T22:37:11.255Z,10.20
2019-04-30T22:39:49.914Z,10.10
2019-04-30T22:42:32.807Z,10.10
2019-04-30T22:45:19.055Z,10.10
2019-04-30T22:47:51.904Z,10.00
2019-04-30T22:50:24.790Z,10.00
2019-04-30T22:52:57.615Z,9.90
2019-04-30T22:55:30.508Z,9.80
2019-04-30T22:58:03.636Z,9.70
2019-04-30T23:00:46.393Z,9.60
2019-04-30T23:03:30.933Z,9.50
2019-04-30T23:06:04.147Z,9.40
2019-04-30T23:08:37.008Z,9.30
2019-04-30T23:11:09.816Z,9.20
2019-04-30T23:13:42.674Z,9.20
2019-04-30T23:16:15.914Z,9.20
2019-04-30T23:18:48.756Z,9.20
2019-04-30T23:21:21.582Z,9.10
2019-04-30T23:23:54.469Z,9.10
2019-04-30T23:26:27.320Z,9.20
2019-04-30T23:29:00.161Z,9.20
2019-04-30T23:31:33.004Z,9.10
2019-04-30T23:34:17.472Z,9.10
2019-04-30T23:36:40.597Z,9.00
2019-04-30T23:39:13.470Z,9.00
2019-04-30T23:41:46.575Z,9.00
2019-04-30T23:44:19.471Z,9.00
2019-04-30T23:46:52.231Z,9.00
2019-04-30T23:49:25.103Z,9.00
2019-04-30T23:51:58.009Z,9.00
2019-04-30T23:54:31.100Z,9.00
2019-04-30T23:57:03.955Z,8.90
2019-04-30T23:59:36.739Z,8.90
